createdAt,value
2022-09-07T00:01:43.168Z,21.20
2022-09-07T00:04:29.800Z,21.30
2022-09-07T00:07:16.250Z,21.00
2022-09-07T00:10:04.013Z,21.10
2022-09-07T00:12:51.174Z,21.10
2022-09-07T00:15:41.070Z,21.10
2022-09-07T00:18:27.629Z,21.20
2022-09-07T00:21:15.645Z,21.10
2022-09-07T00:24:02.046Z,21.20
2022-09-07T00:26:49.768Z,21.20
2022-09-07T00:29:36.406Z,21.20
2022-09-07T00:32:23.298Z,21.20
2022-09-07T00:35:12.220Z,21.20
2022-09-07T00:37:59.228Z,21.10
2022-09-07T00:40:46.028Z,21.20
2022-09-07T00:43:38.386Z,21.20
2022-09-07T00:46:26.482Z,21.10
2022-09-07T00:49:17.301Z,21.00
2022-09-07T00:52:07.818Z,21.10
2022-09-07T00:54:57.626Z,21.10
2022-09-07T00:57:49.244Z,21.00
2022-09-07T01:00:37.315Z,21.10
2022-09-07T01:03:28.432Z,20.90
2022-09-07T01:06:18.545Z,20.80
2022-09-07T01:09:07.749Z,20.90
2022-09-07T01:11:55.799Z,20.70
2022-09-07T01:14:46.276Z,20.80
2022-09-07T01:17:45.179Z,20.80
2022-09-07T01:20:41.523Z,20.90
2022-09-07T01:24:15.489Z,20.80
2022-09-07T01:27:39.317Z,20.80
2022-09-07T01:30:26.691Z,20.90
2022-09-07T01:33:38.662Z,20.80
2022-09-07T01:36:33.604Z,20.90
2022-09-07T01:39:24.611Z,20.90
2022-09-07T01:42:13.630Z,20.90
2022-09-07T01:45:04.061Z,20.90
2022-09-07T01:47:55.260Z,20.90
2022-09-07T01:50:45.005Z,20.80
2022-09-07T01:53:36.073Z,20.90
2022-09-07T01:56:28.827Z,20.70
2022-09-07T01:59:20.685Z,20.80
2022-09-07T02:02:10.800Z,20.80
2022-09-07T02:05:02.408Z,20.80
2022-09-07T02:07:53.047Z,20.70
2022-09-07T02:10:43.824Z,20.50
2022-09-07T02:13:35.000Z,20.70
2022-09-07T02:16:25.078Z,20.80
2022-09-07T02:19:17.239Z,20.80
2022-09-07T02:22:09.695Z,20.50
2022-09-07T02:24:59.377Z,20.50
2022-09-07T02:27:49.012Z,20.50
2022-09-07T02:30:35.619Z,20.50
2022-09-07T02:33:23.348Z,20.50
2022-09-07T02:36:13.647Z,20.40
2022-09-07T02:39:00.212Z,20.40
2022-09-07T02:41:47.479Z,20.50
2022-09-07T02:44:38.231Z,20.60
2022-09-07T02:47:33.500Z,20.60
2022-09-07T02:50:38.889Z,20.70
2022-09-07T02:53:56.840Z,20.80
2022-09-07T02:56:55.520Z,20.70
2022-09-07T02:59:52.171Z,20.70
2022-09-07T03:02:52.347Z,20.60
2022-09-07T03:05:43.922Z,20.70
2022-09-07T03:08:37.120Z,20.60
2022-09-07T03:11:24.186Z,20.50
2022-09-07T03:14:18.953Z,20.50
2022-09-07T03:17:05.537Z,20.50
2022-09-07T03:19:51.862Z,20.50
2022-09-07T03:22:38.487Z,20.40
2022-09-07T03:25:26.408Z,20.40
2022-09-07T03:28:13.153Z,20.50
2022-09-07T03:30:59.756Z,20.60
2022-09-07T03:33:46.513Z,20.50
2022-09-07T03:36:33.512Z,20.50
2022-09-07T03:39:22.600Z,20.50
2022-09-07T03:42:10.673Z,20.50
2022-09-07T03:44:57.290Z,20.40
2022-09-07T03:47:44.610Z,20.40
2022-09-07T03:50:31.055Z,20.40
2022-09-07T03:53:17.348Z,20.30
2022-09-07T03:56:06.247Z,20.40
2022-09-07T03:58:55.305Z,20.40
2022-09-07T04:01:42.180Z,20.30
2022-09-07T04:04:29.023Z,20.30
2022-09-07T04:07:16.019Z,20.20
2022-09-07T04:10:02.715Z,20.20
2022-09-07T04:12:48.955Z,20.00
2022-09-07T04:15:37.232Z,20.10
2022-09-07T04:18:24.981Z,20.00
2022-09-07T04:21:12.579Z,20.10
2022-09-07T04:23:59.775Z,20.20
2022-09-07T04:26:46.604Z,20.20
2022-09-07T04:29:33.205Z,20.10
2022-09-07T04:32:20.880Z,20.20
2022-09-07T04:35:08.865Z,20.10
2022-09-07T04:37:55.850Z,20.10
2022-09-07T04:40:42.574Z,20.10
2022-09-07T04:43:29.479Z,20.10
2022-09-07T04:46:20.434Z,20.10
2022-09-07T04:49:10.151Z,20.00
2022-09-07T04:51:56.923Z,20.00
2022-09-07T04:54:43.435Z,20.00
2022-09-07T04:57:30.079Z,20.00
2022-09-07T05:00:17.074Z,19.90
2022-09-07T05:03:03.280Z,19.80
2022-09-07T05:05:51.084Z,19.80
2022-09-07T05:08:38.860Z,19.80
2022-09-07T05:11:29.466Z,19.70
2022-09-07T05:14:16.311Z,19.70
2022-09-07T05:17:02.680Z,19.80
2022-09-07T05:19:49.759Z,19.80
2022-09-07T05:22:41.015Z,19.90
2022-09-07T05:25:29.077Z,19.70
2022-09-07T05:28:19.278Z,19.70
2022-09-07T05:31:22.982Z,19.80
2022-09-07T05:37:16.759Z,19.70
2022-09-07T05:40:05.691Z,19.70
2022-09-07T05:42:52.678Z,19.70
2022-09-07T05:45:39.354Z,19.70
2022-09-07T05:48:26.031Z,19.70
2022-09-07T05:51:13.252Z,19.80
2022-09-07T05:53:59.872Z,19.80
2022-09-07T05:56:47.729Z,19.80
2022-09-07T05:59:34.174Z,19.90
2022-09-07T06:02:20.800Z,20.00
2022-09-07T06:05:08.583Z,20.10
2022-09-07T06:07:54.826Z,20.10
2022-09-07T06:13:34.212Z,20.10
2022-09-07T06:16:21.320Z,19.90
2022-09-07T06:19:09.112Z,19.80
2022-09-07T06:21:55.657Z,20.00
2022-09-07T06:24:42.152Z,20.20
2022-09-07T06:27:29.393Z,20.20
2022-09-07T06:30:17.639Z,20.20
2022-09-07T06:33:04.540Z,20.30
2022-09-07T06:35:56.957Z,20.30
2022-09-07T06:38:44.811Z,20.40
2022-09-07T06:44:38.930Z,20.40
2022-09-07T06:47:26.736Z,20.50
2022-09-07T06:50:13.515Z,20.50
2022-09-07T06:56:08.960Z,20.60
2022-09-07T06:58:55.966Z,20.60
2022-09-07T07:01:42.584Z,20.60
2022-09-07T07:04:30.518Z,20.60
2022-09-07T07:07:17.224Z,20.70
2022-09-07T07:10:03.572Z,20.70
2022-09-07T07:12:49.965Z,20.80
2022-09-07T07:15:36.299Z,20.80
2022-09-07T07:18:22.733Z,20.80
2022-09-07T07:21:12.217Z,20.80
2022-09-07T07:23:58.979Z,20.90
2022-09-07T07:26:48.670Z,21.00
2022-09-07T07:29:35.133Z,21.00
2022-09-07T07:32:21.720Z,21.10
2022-09-07T07:35:09.211Z,21.20
2022-09-07T07:44:10.815Z,21.50
2022-09-07T07:46:57.390Z,21.60
2022-09-07T07:49:44.127Z,21.60
2022-09-07T07:55:43.631Z,21.70
2022-09-07T07:58:31.983Z,21.60
2022-09-07T08:01:19.098Z,21.70
2022-09-07T08:04:05.937Z,21.80
2022-09-07T08:06:52.396Z,21.80
2022-09-07T08:09:40.055Z,22.00
2022-09-07T08:12:29.831Z,22.10
2022-09-07T08:15:16.821Z,22.10
2022-09-07T08:18:03.771Z,22.20
2022-09-07T08:20:50.193Z,22.30
2022-09-07T08:23:37.219Z,22.30
2022-09-07T08:26:23.456Z,22.40
2022-09-07T08:29:11.292Z,22.50
2022-09-07T08:31:57.796Z,22.60
2022-09-07T08:34:44.583Z,22.80
2022-09-07T08:37:31.045Z,22.90
2022-09-07T08:40:18.337Z,22.90
2022-09-07T08:43:13.027Z,22.90
2022-09-07T08:46:07.200Z,23.00
2022-09-07T08:48:55.277Z,23.00
2022-09-07T08:51:48.567Z,23.00
2022-09-07T08:54:35.513Z,23.10
2022-09-07T08:57:28.010Z,23.20
2022-09-07T09:00:16.443Z,23.30
2022-09-07T09:06:23.632Z,23.50
2022-09-07T09:09:20.369Z,23.60
2022-09-07T09:12:17.028Z,23.50
2022-09-07T09:15:17.610Z,23.60
2022-09-07T09:18:14.858Z,23.60
2022-09-07T09:21:01.891Z,23.80
2022-09-07T09:23:52.128Z,24.00
2022-09-07T09:26:40.020Z,24.00
2022-09-07T09:29:26.981Z,24.00
2022-09-07T09:32:34.022Z,24.00
2022-09-07T09:35:30.023Z,24.00
2022-09-07T09:38:32.364Z,24.00
2022-09-07T09:41:19.442Z,24.20
2022-09-07T09:44:06.325Z,24.30
2022-09-07T09:50:06.297Z,24.30
2022-09-07T09:52:54.896Z,24.30
2022-09-07T09:55:42.487Z,24.30
2022-09-07T10:04:45.014Z,24.60
2022-09-07T10:07:32.559Z,24.60
2022-09-07T10:10:20.522Z,24.60
2022-09-07T10:13:08.824Z,24.70
2022-09-07T10:15:57.568Z,24.70
2022-09-07T10:18:56.837Z,24.90
2022-09-07T10:21:45.828Z,25.00
2022-09-07T10:24:39.138Z,25.10
2022-09-07T10:27:35.910Z,25.50
2022-09-07T10:30:22.335Z,25.60
2022-09-07T10:33:15.380Z,25.40
2022-09-07T10:36:06.892Z,25.30
2022-09-07T10:39:01.028Z,25.20
2022-09-07T10:41:55.824Z,25.10
2022-09-07T10:44:57.035Z,25.30
2022-09-07T10:47:52.974Z,25.40
2022-09-07T10:50:46.696Z,25.10
2022-09-07T10:53:43.438Z,25.30
2022-09-07T10:56:36.567Z,25.30
2022-09-07T11:06:15.084Z,25.30
2022-09-07T11:09:16.458Z,25.30
2022-09-07T11:12:08.053Z,25.70
2022-09-07T11:14:59.435Z,25.70
2022-09-07T11:17:53.004Z,25.70
2022-09-07T11:20:46.249Z,25.90
2022-09-07T11:23:40.968Z,26.00
2022-09-07T11:26:33.211Z,25.90
2022-09-07T11:29:29.767Z,26.20
2022-09-07T11:32:22.264Z,26.30
2022-09-07T11:35:20.151Z,26.20
2022-09-07T11:38:17.825Z,26.30
2022-09-07T11:41:22.159Z,26.80
2022-09-07T11:44:16.270Z,26.80
2022-09-07T11:47:09.358Z,27.00
2022-09-07T11:49:59.402Z,26.90
2022-09-07T11:52:53.537Z,27.10
2022-09-07T11:55:45.127Z,26.90
2022-09-07T11:58:46.396Z,27.10
2022-09-07T12:01:45.177Z,27.10
2022-09-07T12:04:43.435Z,26.80
2022-09-07T12:08:03.949Z,26.40
2022-09-07T12:11:05.771Z,26.20
2022-09-07T12:14:17.235Z,26.30
2022-09-07T12:17:24.709Z,26.40
2022-09-07T12:20:14.357Z,26.30
2022-09-07T12:23:05.778Z,26.30
2022-09-07T12:25:53.394Z,26.20
2022-09-07T12:29:05.615Z,26.10
2022-09-07T12:31:59.574Z,25.80
2022-09-07T12:34:55.515Z,26.10
2022-09-07T12:37:43.360Z,26.40
2022-09-07T12:40:59.894Z,26.90
2022-09-07T12:43:54.316Z,26.70
2022-09-07T12:46:49.970Z,26.40
2022-09-07T12:50:19.549Z,26.50
2022-09-07T12:53:26.034Z,26.80
2022-09-07T12:56:32.552Z,27.10
2022-09-07T12:59:46.646Z,27.30
2022-09-07T13:02:56.743Z,27.50
2022-09-07T13:05:57.955Z,27.80
2022-09-07T13:09:01.013Z,27.90
2022-09-07T13:11:49.153Z,27.80
2022-09-07T13:14:39.416Z,27.90
2022-09-07T13:17:44.016Z,27.60
2022-09-07T13:20:36.125Z,27.90
2022-09-07T13:23:26.735Z,27.80
2022-09-07T13:26:36.426Z,27.70
2022-09-07T13:29:30.875Z,27.70
2022-09-07T13:33:08.084Z,27.40
2022-09-07T13:35:33.011Z,27.30
2022-09-07T13:38:20.543Z,27.70
2022-09-07T13:41:13.808Z,28.00
2022-09-07T13:44:02.315Z,27.80
2022-09-07T13:47:09.107Z,27.30
2022-09-07T13:50:05.560Z,27.30
2022-09-07T13:53:08.250Z,27.60
2022-09-07T13:56:00.306Z,27.90
2022-09-07T13:58:49.689Z,28.00
2022-09-07T14:01:36.435Z,28.30
2022-09-07T14:04:27.744Z,28.50
2022-09-07T14:07:16.479Z,28.50
2022-09-07T14:10:11.496Z,28.70
2022-09-07T14:13:08.268Z,28.40
2022-09-07T14:15:55.356Z,28.30
2022-09-07T14:18:41.830Z,27.90
2022-09-07T14:21:29.784Z,27.20
2022-09-07T14:24:24.545Z,27.40
2022-09-07T14:27:22.218Z,27.30
2022-09-07T14:30:28.345Z,27.40
2022-09-07T14:33:17.999Z,27.80
2022-09-07T14:36:23.350Z,27.70
2022-09-07T14:39:15.241Z,27.90
2022-09-07T14:42:03.837Z,27.90
2022-09-07T14:44:53.296Z,27.50
2022-09-07T14:47:40.711Z,27.90
2022-09-07T14:50:34.113Z,28.20
2022-09-07T14:53:36.853Z,28.10
2022-09-07T14:56:29.585Z,27.70
2022-09-07T14:59:35.527Z,27.80
2022-09-07T15:02:36.930Z,26.90
2022-09-07T15:05:26.943Z,27.30
2022-09-07T15:08:20.730Z,27.40
2022-09-07T15:14:21.776Z,27.60
2022-09-07T15:20:43.282Z,27.40
2022-09-07T15:23:30.143Z,27.50
2022-09-07T15:29:25.012Z,27.70
2022-09-07T15:32:11.641Z,27.80
2022-09-07T15:34:57.941Z,27.80
2022-09-07T15:41:20.866Z,27.60
2022-09-07T15:44:00.715Z,28.10
2022-09-07T15:49:55.637Z,28.00
2022-09-07T15:52:42.753Z,28.00
2022-09-07T15:55:32.425Z,27.60
2022-09-07T15:58:18.764Z,27.70
2022-09-07T16:04:15.901Z,27.00
2022-09-07T16:07:02.373Z,26.90
2022-09-07T16:09:52.406Z,27.30
2022-09-07T16:15:47.466Z,26.90
2022-09-07T16:18:35.157Z,26.10
2022-09-07T16:21:26.310Z,26.50
2022-09-07T16:24:13.162Z,26.40
2022-09-07T16:26:59.529Z,26.30
2022-09-07T16:29:46.062Z,26.00
2022-09-07T16:32:48.147Z,26.30
2022-09-07T16:35:35.011Z,26.10
2022-09-07T16:41:31.623Z,26.10
2022-09-07T16:44:18.103Z,26.00
2022-09-07T16:47:05.194Z,26.00
2022-09-07T16:49:51.772Z,25.70
2022-09-07T16:52:38.434Z,25.70
2022-09-07T16:55:26.214Z,25.80
2022-09-07T17:01:21.555Z,25.90
2022-09-07T17:04:11.200Z,25.80
2022-09-07T17:06:58.396Z,25.70
2022-09-07T17:09:44.739Z,25.40
2022-09-07T17:12:32.544Z,25.30
2022-09-07T17:15:18.968Z,25.40
2022-09-07T17:18:05.409Z,25.50
2022-09-07T17:20:56.686Z,25.40
2022-09-07T17:23:51.967Z,25.30
2022-09-07T17:26:42.762Z,25.40
2022-09-07T17:29:37.077Z,25.40
2022-09-07T17:32:25.068Z,25.30
2022-09-07T17:35:12.287Z,25.20
2022-09-07T17:38:00.883Z,25.00
2022-09-07T17:40:47.853Z,25.00
2022-09-07T17:43:45.214Z,24.80
2022-09-07T17:46:33.584Z,24.80
2022-09-07T17:49:19.986Z,24.90
2022-09-07T17:52:06.506Z,24.80
2022-09-07T17:54:55.379Z,24.80
2022-09-07T17:57:41.987Z,24.90
2022-09-07T18:00:28.509Z,24.60
2022-09-07T18:03:16.590Z,24.60
2022-09-07T18:06:03.912Z,24.70
2022-09-07T18:08:50.405Z,24.50
2022-09-07T18:11:45.749Z,24.60
2022-09-07T18:14:33.627Z,24.50
2022-09-07T18:17:19.948Z,24.40
2022-09-07T18:20:09.533Z,24.30
2022-09-07T18:22:57.578Z,24.20
2022-09-07T18:25:46.206Z,24.10
2022-09-07T18:31:39.548Z,23.90
2022-09-07T18:34:25.932Z,23.60
2022-09-07T18:37:14.098Z,23.40
2022-09-07T18:40:01.037Z,23.60
2022-09-07T18:42:48.194Z,23.50
2022-09-07T18:45:34.710Z,23.50
2022-09-07T18:48:21.343Z,23.40
2022-09-07T18:51:09.677Z,23.30
2022-09-07T18:53:58.544Z,23.30
2022-09-07T18:56:45.283Z,23.20
2022-09-07T18:59:31.528Z,23.10
2022-09-07T19:02:18.979Z,23.00
2022-09-07T19:08:13.124Z,22.90
2022-09-07T19:11:06.900Z,22.90
2022-09-07T19:13:57.423Z,22.80
2022-09-07T19:16:45.305Z,22.70
2022-09-07T19:19:34.248Z,22.70
2022-09-07T19:22:20.536Z,22.60
2022-09-07T19:25:07.555Z,22.50
2022-09-07T19:27:55.752Z,22.50
2022-09-07T19:30:42.481Z,22.50
2022-09-07T19:33:29.150Z,22.40
2022-09-07T19:36:16.055Z,22.10
2022-09-07T19:39:02.934Z,22.10
2022-09-07T19:41:49.558Z,22.20
2022-09-07T19:44:37.449Z,22.20
2022-09-07T19:47:24.265Z,22.10
2022-09-07T19:50:10.881Z,22.10
2022-09-07T19:52:57.291Z,22.10
2022-09-07T19:55:44.607Z,22.00
2022-09-07T19:58:33.992Z,22.00
2022-09-07T20:01:24.920Z,21.70
2022-09-07T20:04:18.972Z,21.70
2022-09-07T20:07:06.746Z,21.70
2022-09-07T20:09:53.334Z,21.70
2022-09-07T20:12:40.097Z,21.70
2022-09-07T20:15:27.265Z,21.60
2022-09-07T20:18:15.253Z,21.60
2022-09-07T20:21:04.904Z,21.60
2022-09-07T20:23:51.487Z,21.60
2022-09-07T20:26:38.117Z,21.50
2022-09-07T20:29:27.753Z,21.50
2022-09-07T20:32:16.830Z,21.40
2022-09-07T20:35:04.972Z,21.40
2022-09-07T20:37:51.444Z,21.30
2022-09-07T20:40:38.017Z,21.20
2022-09-07T20:43:24.920Z,21.20
2022-09-07T20:46:11.273Z,21.20
2022-09-07T20:48:57.656Z,21.10
2022-09-07T20:51:45.421Z,21.10
2022-09-07T20:54:32.570Z,22.00
2022-09-07T20:57:19.191Z,21.00
2022-09-07T21:00:06.828Z,20.90
2022-09-07T21:02:53.339Z,20.90
2022-09-07T21:05:39.720Z,20.90
2022-09-07T21:08:27.621Z,20.80
2022-09-07T21:11:16.469Z,20.80
2022-09-07T21:14:06.951Z,20.80
2022-09-07T21:16:53.309Z,20.70
2022-09-07T21:19:39.776Z,20.70
2022-09-07T21:22:26.036Z,20.70
2022-09-07T21:25:14.511Z,20.60
2022-09-07T21:28:01.236Z,20.60
2022-09-07T21:30:57.122Z,20.50
2022-09-07T21:33:43.989Z,20.50
2022-09-07T21:36:31.348Z,20.50
2022-09-07T21:39:18.077Z,20.50
2022-09-07T21:42:06.263Z,20.40
2022-09-07T21:44:52.763Z,20.30
2022-09-07T21:47:39.087Z,20.30
2022-09-07T21:50:25.481Z,20.30
2022-09-07T21:53:12.707Z,20.30
2022-09-07T21:56:00.513Z,20.20
2022-09-07T21:58:49.156Z,20.20
2022-09-07T22:01:35.905Z,20.20
2022-09-07T22:04:22.168Z,20.10
2022-09-07T22:07:08.657Z,20.10
2022-09-07T22:09:55.109Z,20.10
2022-09-07T22:12:41.477Z,20.10
2022-09-07T22:15:31.172Z,20.00
2022-09-07T22:18:17.915Z,20.00
2022-09-07T22:21:06.989Z,19.90
2022-09-07T22:23:56.780Z,19.90
2022-09-07T22:26:43.285Z,19.90
2022-09-07T22:29:29.757Z,19.90
2022-09-07T22:32:17.760Z,19.80
2022-09-07T22:35:04.168Z,19.80
2022-09-07T22:37:50.441Z,19.70
2022-09-07T22:40:36.823Z,19.70
2022-09-07T22:43:23.136Z,19.60
2022-09-07T22:46:10.351Z,19.60
2022-09-07T22:48:59.529Z,19.60
2022-09-07T22:51:46.736Z,19.40
2022-09-07T22:54:33.331Z,19.50
2022-09-07T22:57:19.767Z,19.50
2022-09-07T23:00:07.474Z,19.60
2022-09-07T23:02:54.051Z,19.50
2022-09-07T23:05:41.799Z,19.40
2022-09-07T23:08:29.244Z,19.50
2022-09-07T23:11:15.908Z,19.50
2022-09-07T23:14:05.159Z,19.50
2022-09-07T23:16:51.787Z,19.30
2022-09-07T23:19:38.815Z,19.40
2022-09-07T23:22:26.752Z,19.50
2022-09-07T23:25:13.200Z,19.40
2022-09-07T23:27:59.666Z,19.40
2022-09-07T23:30:48.181Z,19.30
2022-09-07T23:33:34.994Z,19.30
2022-09-07T23:36:21.900Z,19.20
2022-09-07T23:39:09.600Z,19.20
2022-09-07T23:41:56.013Z,19.20
2022-09-07T23:44:42.457Z,19.20
2022-09-07T23:47:28.747Z,19.20
2022-09-07T23:50:15.124Z,19.10
2022-09-07T23:53:01.933Z,19.10
2022-09-07T23:55:51.568Z,19.10
2022-09-07T23:58:37.807Z,19.10
